메인 페이지
METAR-TAF:

METAR-TAF

공항 :

Philip Billard Municipal Airport

토피카, 캔자스, 미국

위도: 39-04-21N, 경도: 095-37-33W, 고도: 268m

현재 날씨관측

예보는 7분 전, 15:53시(UTC)에 발표되었습니다.
18kt, 순간 최대 풍속 33kt
온도 24°C
습도 65%
기압 1009 hPa
시정: 16.1km
맑음

METAR: KTOP 221553Z AUTO 19018G33KT 10SM CLR 24/17 A2979 RMK AO2 PK WND 18034/1528 SLP082 T02440172 PNO $

시각: 11:00 (16:00 UTC)

예보

예보는 4 시간 40분 전, 11:20시(UTC)에 발표되었습니다.
예보 대상 시간: 22일 12시부터 23일 12시까지 (UTC)
남남동10kt
시정: 9.7km
고도 200ft 상공 구름 조금
박무
22일 1500시부터 (UTC)
20kt, 순간 최대 풍속 34kt
시정: 10km
고도 2000ft 상공 구름 조금
23일 0100시부터 (UTC)
11kt, 순간 최대 풍속 21kt
시정: 10km
고도 1500ft 상공 구름 보통
고도 2500ft 상공 구름 많음, 적란운.
시계 내 뇌우
23일 0700시부터 (UTC)
북북서17kt, 순간 최대 풍속 25kt
시정: 10km
고도 900ft 상공 흐림

TAF: KTOP 221120Z 2212/2312 16010KT 6SM BR FEW002 WS010/19050KT FM221500 19020G34KT P6SM FEW020 FM230100 35011G21KT P6SM VCTS SCT015 BKN025CB FM230700 34017G25KT P6SM OVC009

4,000개 이상의 공항 관측 자료 및 예보 (METAR 및 TAF 보고).

지도상에서 검색 가능한 기상관측소가 노란 점과 빨간 점으로 표시되어 있습니다.

기상관측소 명을 보려면 표시 위로 마우스를 이동하세요.

날씨 관측과 예보를 보려면 클릭하세요.

지도 변경 : 확대하려면 엑스 표시가 있는 녹색 버튼, 축소하려면 빼기 표시가 있는 녹색 버튼, 다음 페이지의 지도를 보려면 녹색 화살표를 클릭하세요.


METAR-TAF: